createdAt,value
2018-10-11T00:00:25.880Z,35.10
2018-10-11T00:02:54.944Z,31.50
2018-10-11T00:05:24.086Z,35.33
2018-10-11T00:07:53.234Z,36.17
2018-10-11T00:10:22.373Z,35.97
2018-10-11T00:12:51.460Z,32.50
2018-10-11T00:15:20.588Z,29.53
2018-10-11T00:17:49.692Z,31.50
2018-10-11T00:20:18.809Z,32.77
2018-10-11T00:22:47.902Z,29.80
2018-10-11T00:25:16.995Z,32.30
2018-10-11T00:27:46.076Z,28.87
2018-10-11T00:30:15.150Z,33.90
2018-10-11T00:32:44.246Z,32.30
2018-10-11T00:35:13.326Z,30.23
2018-10-11T00:37:42.377Z,34.10
2018-10-11T00:40:11.638Z,29.87
2018-10-11T00:42:40.912Z,32.10
2018-10-11T00:45:10.003Z,31.73
2018-10-11T00:47:39.109Z,32.83
2018-10-11T00:50:08.184Z,32.90
2018-10-11T00:52:37.519Z,31.77
2018-10-11T00:55:06.615Z,37.63
2018-10-11T00:57:35.718Z,31.37
2018-10-11T01:00:04.792Z,34.97
2018-10-11T01:02:33.864Z,32.00
2018-10-11T01:05:03.002Z,32.47
2018-10-11T01:07:32.109Z,35.20
2018-10-11T01:10:01.245Z,32.87
2018-10-11T01:12:30.269Z,32.57
2018-10-11T01:14:59.413Z,31.73
2018-10-11T01:17:28.454Z,31.80
2018-10-11T01:19:57.530Z,32.53
2018-10-11T01:22:26.647Z,31.77
2018-10-11T01:24:55.744Z,35.40
2018-10-11T01:27:24.821Z,33.30
2018-10-11T01:29:54.006Z,31.67
2018-10-11T01:32:23.239Z,32.87
2018-10-11T01:34:52.337Z,36.07
2018-10-11T01:37:21.425Z,32.47
2018-10-11T01:39:50.497Z,42.47
2018-10-11T01:42:19.567Z,34.70
2018-10-11T01:44:48.625Z,33.00
2018-10-11T01:47:17.717Z,30.70
2018-10-11T01:49:46.817Z,44.40
2018-10-11T01:52:15.911Z,31.07
2018-10-11T01:54:44.990Z,31.77
2018-10-11T01:57:14.114Z,34.43
2018-10-11T01:59:43.197Z,30.03
2018-10-11T02:02:12.270Z,38.50
2018-10-11T02:04:41.379Z,31.97
2018-10-11T02:07:10.492Z,37.17
2018-10-11T02:09:39.609Z,37.23
2018-10-11T02:12:08.665Z,35.40
2018-10-11T02:14:37.757Z,39.90
2018-10-11T02:17:06.874Z,36.70
2018-10-11T02:19:35.947Z,34.17
2018-10-11T02:22:05.024Z,36.37
2018-10-11T02:24:34.117Z,35.80
2018-10-11T02:27:03.288Z,41.27
2018-10-11T02:29:32.349Z,40.80
2018-10-11T02:32:01.521Z,37.47
2018-10-11T02:34:30.547Z,42.73
2018-10-11T02:36:59.599Z,43.93
2018-10-11T02:39:28.677Z,36.10
2018-10-11T02:41:57.833Z,37.27
2018-10-11T02:44:26.887Z,39.67
2018-10-11T02:46:55.996Z,41.27
2018-10-11T02:49:26.151Z,34.37
2018-10-11T02:51:55.839Z,38.67
2018-10-11T02:54:24.894Z,36.30
2018-10-11T02:57:00.834Z,38.00
2018-10-11T02:59:36.621Z,37.63
2018-10-11T03:02:09.448Z,35.53
2018-10-11T03:04:38.517Z,34.17
2018-10-11T03:07:09.552Z,40.53
2018-10-11T03:09:38.838Z,42.90
2018-10-11T03:12:07.975Z,36.80
2018-10-11T03:14:37.042Z,38.07
2018-10-11T03:17:06.352Z,43.23
2018-10-11T03:19:35.438Z,38.80
2018-10-11T03:22:04.536Z,34.60
2018-10-11T03:24:33.634Z,36.90
2018-10-11T03:27:02.726Z,38.70
2018-10-11T03:29:32.121Z,40.37
2018-10-11T03:32:01.236Z,36.83
2018-10-11T03:34:30.727Z,38.30
2018-10-11T03:37:00.334Z,36.63
2018-10-11T03:39:29.842Z,33.43
2018-10-11T03:41:59.767Z,38.47
2018-10-11T03:44:29.270Z,36.43
2018-10-11T03:46:58.329Z,33.30
2018-10-11T03:49:27.434Z,39.30
2018-10-11T03:51:56.516Z,34.50
2018-10-11T03:54:25.849Z,34.30
2018-10-11T03:56:54.943Z,40.17
2018-10-11T03:59:24.416Z,40.33
2018-10-11T04:01:53.499Z,34.90
2018-10-11T04:04:22.618Z,35.30
2018-10-11T04:06:51.706Z,33.20
2018-10-11T04:09:20.832Z,39.37
2018-10-11T04:11:49.923Z,40.03
2018-10-11T04:14:19.019Z,39.07
2018-10-11T04:16:48.125Z,39.40
2018-10-11T04:19:17.225Z,39.70
2018-10-11T04:21:46.304Z,35.43
2018-10-11T04:24:15.398Z,37.30
2018-10-11T04:26:44.473Z,34.37
2018-10-11T04:29:13.553Z,45.43
2018-10-11T04:31:42.626Z,35.10
2018-10-11T04:34:11.697Z,37.47
2018-10-11T04:36:40.764Z,35.40
2018-10-11T04:39:10.253Z,41.17
2018-10-11T04:41:39.663Z,41.43
2018-10-11T04:44:11.693Z,45.53
2018-10-11T04:46:41.040Z,37.37
2018-10-11T04:49:10.327Z,40.03
2018-10-11T04:51:39.626Z,37.83
2018-10-11T04:54:08.694Z,41.73
2018-10-11T04:56:37.768Z,37.70
2018-10-11T04:59:07.108Z,36.83
2018-10-11T05:01:36.213Z,40.33
2018-10-11T05:04:05.287Z,39.20
2018-10-11T05:06:34.369Z,36.53
2018-10-11T05:09:03.514Z,37.70
2018-10-11T05:11:32.609Z,38.53
2018-10-11T05:14:01.702Z,37.13
2018-10-11T05:16:30.780Z,35.60
2018-10-11T05:19:02.872Z,36.80
2018-10-11T05:21:32.030Z,39.50
2018-10-11T05:24:01.082Z,35.73
2018-10-11T05:26:30.200Z,36.90
2018-10-11T05:28:59.278Z,37.00
2018-10-11T05:31:30.491Z,37.50
2018-10-11T05:33:59.641Z,41.17
2018-10-11T05:36:28.715Z,38.50
2018-10-11T05:38:57.785Z,41.87
2018-10-11T05:41:26.863Z,38.50
2018-10-11T05:43:56.035Z,40.73
2018-10-11T05:46:28.958Z,41.87
2018-10-11T05:48:58.962Z,53.23
2018-10-11T05:51:29.000Z,39.90
2018-10-11T05:53:58.325Z,40.47
2018-10-11T05:56:29.803Z,37.40
2018-10-11T05:58:59.986Z,39.60
2018-10-11T06:01:29.078Z,45.10
2018-10-11T06:03:58.408Z,46.63
2018-10-11T06:06:27.479Z,42.27
2018-10-11T06:08:56.606Z,44.67
2018-10-11T06:11:25.673Z,40.50
2018-10-11T06:13:54.762Z,53.90
2018-10-11T06:16:23.829Z,42.60
2018-10-11T06:18:52.973Z,42.83
2018-10-11T06:21:22.039Z,53.43
2018-10-11T06:23:51.175Z,44.53
2018-10-11T06:26:20.279Z,40.27
2018-10-11T06:28:49.346Z,39.00
2018-10-11T06:31:18.445Z,42.10
2018-10-11T06:33:47.558Z,42.50
2018-10-11T06:36:16.766Z,55.60
2018-10-11T06:38:45.757Z,49.17
2018-10-11T06:41:15.045Z,52.50
2018-10-11T06:43:44.167Z,37.67
2018-10-11T06:46:13.745Z,37.90
2018-10-11T06:48:42.837Z,38.53
2018-10-11T06:51:11.928Z,39.23
2018-10-11T06:53:41.007Z,41.33
2018-10-11T06:56:10.088Z,36.73
2018-10-11T06:58:39.185Z,33.77
2018-10-11T07:01:08.292Z,39.87
2018-10-11T07:03:37.379Z,36.97
2018-10-11T07:06:06.531Z,32.60
2018-10-11T07:08:35.623Z,36.03
2018-10-11T07:11:04.708Z,33.27
2018-10-11T07:13:33.890Z,34.50
2018-10-11T07:16:02.951Z,33.70
2018-10-11T07:18:32.039Z,30.93
2018-10-11T07:21:01.117Z,36.40
2018-10-11T07:23:30.214Z,41.40
2018-10-11T07:25:59.393Z,36.43
2018-10-11T07:28:28.392Z,32.20
2018-10-11T07:30:57.475Z,31.37
2018-10-11T07:33:26.557Z,39.17
2018-10-11T07:35:55.661Z,30.40
2018-10-11T07:38:24.717Z,32.00
2018-10-11T07:40:53.859Z,34.50
2018-10-11T07:43:22.899Z,26.07
2018-10-11T07:45:52.090Z,27.70
2018-10-11T07:48:21.172Z,26.97
2018-10-11T07:50:50.276Z,33.23
2018-10-11T07:53:19.358Z,30.57
2018-10-11T07:55:48.452Z,54.87
2018-10-11T07:58:17.516Z,29.70
2018-10-11T08:00:46.596Z,28.10
2018-10-11T08:03:15.642Z,28.40
2018-10-11T08:05:44.714Z,27.33
2018-10-11T08:11:13.576Z,26.03
2018-10-11T08:13:42.656Z,30.37
2018-10-11T08:16:11.770Z,23.67
2018-10-11T08:18:40.909Z,27.37
2018-10-11T08:21:09.948Z,26.17
2018-10-11T08:23:39.026Z,26.93
2018-10-11T08:26:09.337Z,26.70
2018-10-11T08:28:38.177Z,25.40
2018-10-11T08:31:07.839Z,24.13
2018-10-11T08:33:36.932Z,26.00
2018-10-11T08:36:06.041Z,27.80
2018-10-11T08:38:35.259Z,24.13
2018-10-11T08:41:04.501Z,23.80
2018-10-11T08:43:33.638Z,26.03
2018-10-11T08:46:02.686Z,28.17
2018-10-11T08:48:31.814Z,28.40
2018-10-11T08:51:00.907Z,24.70
2018-10-11T08:53:30.037Z,28.00
2018-10-11T08:55:59.200Z,27.87
2018-10-11T08:58:28.258Z,23.47
2018-10-11T09:00:57.353Z,26.37
2018-10-11T09:03:26.509Z,23.40
2018-10-11T09:05:55.576Z,21.30
2018-10-11T09:08:24.656Z,18.20
2018-10-11T09:10:53.800Z,19.00
2018-10-11T09:13:22.879Z,15.57
2018-10-11T09:15:51.966Z,15.27
2018-10-11T09:18:21.129Z,14.57
2018-10-11T09:20:50.307Z,12.90
2018-10-11T09:23:19.456Z,10.67
2018-10-11T09:25:48.544Z,11.40
2018-10-11T09:28:17.616Z,13.83
2018-10-11T09:30:46.755Z,13.17
2018-10-11T09:33:15.844Z,12.13
2018-10-11T09:35:44.987Z,14.03
2018-10-11T09:38:14.096Z,12.20
2018-10-11T09:40:43.225Z,12.47
2018-10-11T09:43:12.563Z,16.20
2018-10-11T09:45:41.662Z,13.27
2018-10-11T09:48:10.764Z,9.20
2018-10-11T09:50:39.908Z,8.00
2018-10-11T09:53:08.982Z,8.50
2018-10-11T09:55:38.120Z,12.73
2018-10-11T09:58:07.238Z,17.37
2018-10-11T10:00:41.742Z,16.20
2018-10-11T10:03:10.954Z,12.20
2018-10-11T10:05:40.115Z,11.23
2018-10-11T10:08:09.393Z,13.93
2018-10-11T10:10:38.521Z,18.07
2018-10-11T10:13:07.657Z,13.47
2018-10-11T10:15:36.814Z,11.13
2018-10-11T10:18:05.869Z,13.93
2018-10-11T10:20:34.998Z,13.70
2018-10-11T10:23:04.096Z,11.57
2018-10-11T10:25:33.228Z,12.37
2018-10-11T10:28:02.364Z,12.17
2018-10-11T10:30:36.677Z,12.60
2018-10-11T10:33:05.812Z,17.10
2018-10-11T10:35:34.916Z,16.23
2018-10-11T10:38:04.056Z,14.67
2018-10-11T10:40:33.153Z,16.73
2018-10-11T10:43:02.270Z,15.87
2018-10-11T10:45:31.424Z,13.97
2018-10-11T10:48:00.536Z,19.80
2018-10-11T10:50:29.688Z,16.67
2018-10-11T10:52:58.802Z,19.07
2018-10-11T10:55:27.926Z,12.00
2018-10-11T10:57:57.062Z,13.53
2018-10-11T11:00:26.154Z,14.17
2018-10-11T11:02:55.275Z,11.33
2018-10-11T11:05:24.388Z,11.27
2018-10-11T11:07:53.512Z,13.07
2018-10-11T11:10:22.619Z,12.70
2018-10-11T11:12:51.730Z,14.60
2018-10-11T11:15:20.868Z,16.47
2018-10-11T11:17:49.978Z,12.90
2018-10-11T11:20:19.071Z,18.63
2018-10-11T11:22:48.187Z,15.03
2018-10-11T11:25:17.364Z,12.37
2018-10-11T11:27:49.293Z,13.23
2018-10-11T11:30:18.425Z,14.27
2018-10-11T11:32:47.532Z,14.13
2018-10-11T11:35:16.683Z,13.87
2018-10-11T11:37:45.805Z,11.00
2018-10-11T11:40:14.905Z,12.50
2018-10-11T11:42:44.046Z,14.80
2018-10-11T11:45:13.163Z,12.27
2018-10-11T11:47:42.253Z,12.13
2018-10-11T11:50:11.353Z,12.37
2018-10-11T11:52:40.501Z,14.13
2018-10-11T11:55:09.635Z,14.50
2018-10-11T11:57:38.761Z,12.13
2018-10-11T12:00:07.865Z,13.70
2018-10-11T12:02:37.012Z,21.13
2018-10-11T12:05:06.335Z,11.57
2018-10-11T12:07:35.389Z,13.40
2018-10-11T12:10:04.760Z,13.03
2018-10-11T12:13:10.355Z,12.40
2018-10-11T12:15:40.944Z,21.67
2018-10-11T12:18:10.466Z,13.30
2018-10-11T12:20:40.764Z,12.60
2018-10-11T12:23:10.960Z,12.60
2018-10-11T12:25:40.398Z,12.23
2018-10-11T12:28:09.514Z,19.67
2018-10-11T12:30:38.596Z,9.07
2018-10-11T12:33:07.669Z,13.00
2018-10-11T12:35:36.787Z,10.50
2018-10-11T12:38:05.908Z,11.10
2018-10-11T12:40:34.980Z,14.97
2018-10-11T12:43:04.091Z,14.77
2018-10-11T12:45:33.189Z,18.03
2018-10-11T12:48:02.351Z,12.40
2018-10-11T12:50:31.487Z,12.80
2018-10-11T12:53:00.591Z,23.37
2018-10-11T12:55:29.888Z,13.70
2018-10-11T12:57:58.985Z,10.37
2018-10-11T13:00:28.079Z,12.83
2018-10-11T13:02:57.272Z,15.27
2018-10-11T13:05:26.326Z,18.57
2018-10-11T13:07:55.427Z,17.97
2018-10-11T13:10:25.324Z,14.10
2018-10-11T13:12:57.036Z,15.97
2018-10-11T13:15:23.639Z,17.50
2018-10-11T13:17:52.730Z,15.77
2018-10-11T13:20:21.857Z,12.93
2018-10-11T13:22:51.023Z,14.57
2018-10-11T13:25:20.045Z,14.33
2018-10-11T13:27:49.171Z,9.00
2018-10-11T13:30:18.266Z,17.10
2018-10-11T13:32:47.401Z,8.67
2018-10-11T13:35:16.619Z,21.97
2018-10-11T13:37:45.655Z,20.33
2018-10-11T13:40:14.838Z,12.10
2018-10-11T13:42:43.921Z,10.67
2018-10-11T13:45:13.076Z,10.03
2018-10-11T13:47:44.859Z,8.90
2018-10-11T13:50:11.386Z,10.07
2018-10-11T13:52:40.799Z,17.37
2018-10-11T13:55:13.055Z,9.23
2018-10-11T13:57:39.078Z,13.03
2018-10-11T14:00:08.824Z,12.90
2018-10-11T14:02:37.936Z,13.27
2018-10-11T14:05:07.493Z,10.67
2018-10-11T14:07:36.577Z,11.77
2018-10-11T14:10:05.679Z,12.47
2018-10-11T14:12:34.820Z,12.33
2018-10-11T14:15:11.816Z,13.00
2018-10-11T14:17:41.000Z,14.60
2018-10-11T14:20:10.193Z,8.23
2018-10-11T14:22:39.275Z,11.80
2018-10-11T14:25:08.466Z,7.77
2018-10-11T14:27:37.557Z,14.30
2018-10-11T14:30:06.676Z,11.47
2018-10-11T14:32:35.773Z,8.87
2018-10-11T14:35:05.021Z,10.77
2018-10-11T14:37:34.155Z,13.27
2018-10-11T14:40:03.287Z,10.17
2018-10-11T14:42:32.409Z,15.13
2018-10-11T14:45:01.561Z,13.00
2018-10-11T14:47:30.660Z,15.13
2018-10-11T14:49:59.772Z,8.97
2018-10-11T14:52:28.967Z,7.60
2018-10-11T14:54:58.080Z,16.73
2018-10-11T14:57:27.271Z,9.87
2018-10-11T14:59:56.343Z,13.70
2018-10-11T15:02:25.474Z,10.83
2018-10-11T15:04:54.562Z,9.27
2018-10-11T15:07:23.713Z,13.23
2018-10-11T15:09:52.921Z,11.43
2018-10-11T15:12:22.469Z,15.07
2018-10-11T15:14:51.239Z,13.40
2018-10-11T15:17:20.356Z,10.70
2018-10-11T15:19:49.499Z,21.13
2018-10-11T15:22:18.605Z,10.53
2018-10-11T15:24:47.739Z,17.33
2018-10-11T15:27:16.954Z,13.03
2018-10-11T15:29:46.154Z,24.23
2018-10-11T15:32:15.244Z,12.63
2018-10-11T15:34:44.393Z,17.70
2018-10-11T15:37:14.353Z,12.93
2018-10-11T15:39:43.461Z,14.37
2018-10-11T15:42:12.601Z,14.50
2018-10-11T15:44:41.803Z,11.90
2018-10-11T15:47:10.944Z,14.50
2018-10-11T15:49:40.034Z,15.57
2018-10-11T15:52:09.352Z,10.33
2018-10-11T15:54:38.467Z,20.13
2018-10-11T15:57:07.600Z,13.63
2018-10-11T15:59:36.710Z,12.60
2018-10-11T16:02:05.866Z,16.63
2018-10-11T16:04:36.252Z,15.83
2018-10-11T16:07:05.405Z,16.53
2018-10-11T16:09:34.621Z,25.30
2018-10-11T16:12:03.709Z,15.40
2018-10-11T16:14:32.825Z,10.93
2018-10-11T16:17:01.944Z,18.67
2018-10-11T16:19:31.080Z,9.90
2018-10-11T16:22:00.234Z,13.10
2018-10-11T16:24:29.367Z,11.33
2018-10-11T16:26:58.483Z,16.07
2018-10-11T16:29:27.666Z,12.37
2018-10-11T16:31:56.746Z,15.33
2018-10-11T16:34:25.843Z,14.73
2018-10-11T16:36:54.974Z,11.70
2018-10-11T16:39:24.063Z,13.20
2018-10-11T16:41:53.189Z,15.33
2018-10-11T16:44:22.317Z,16.77
2018-10-11T16:46:51.469Z,17.77
2018-10-11T16:49:20.590Z,11.33
2018-10-11T16:51:49.716Z,16.17
2018-10-11T16:54:18.860Z,16.27
2018-10-11T16:56:47.981Z,14.67
2018-10-11T16:59:17.172Z,14.93
2018-10-11T17:01:46.425Z,17.50
2018-10-11T17:04:15.630Z,19.73
2018-10-11T17:06:44.702Z,13.93
2018-10-11T17:09:13.843Z,19.10
2018-10-11T17:11:42.978Z,14.13
2018-10-11T17:14:12.133Z,19.10
2018-10-11T17:16:41.248Z,12.80
2018-10-11T17:19:10.383Z,14.30
2018-10-11T17:21:39.586Z,21.40
2018-10-11T17:24:09.525Z,20.30
2018-10-11T17:26:38.660Z,13.90
2018-10-11T17:29:07.796Z,16.13
2018-10-11T17:31:36.898Z,16.93
2018-10-11T17:34:06.249Z,19.37
2018-10-11T17:36:35.404Z,14.63
2018-10-11T17:39:06.607Z,18.23
2018-10-11T17:41:35.751Z,16.07
2018-10-11T17:44:04.938Z,14.20
2018-10-11T17:46:34.073Z,15.30
2018-10-11T17:49:03.211Z,20.30
2018-10-11T17:51:32.390Z,14.60
2018-10-11T17:54:08.107Z,14.87
2018-10-11T17:56:37.265Z,16.20
2018-10-11T17:59:06.624Z,16.40
2018-10-11T18:01:35.781Z,16.80
2018-10-11T18:04:04.953Z,17.70
2018-10-11T18:06:34.080Z,16.80
2018-10-11T18:09:03.197Z,15.37
2018-10-11T18:11:32.336Z,14.90
2018-10-11T18:14:01.434Z,17.97
2018-10-11T18:16:30.536Z,18.73
2018-10-11T18:18:59.645Z,15.97
2018-10-11T18:21:28.800Z,16.80
2018-10-11T18:23:57.931Z,18.57
2018-10-11T18:26:27.085Z,13.77
2018-10-11T18:28:56.275Z,23.23
2018-10-11T18:31:25.423Z,13.70
2018-10-11T18:33:54.540Z,15.63
2018-10-11T18:36:23.778Z,16.50
2018-10-11T18:38:52.876Z,15.57
2018-10-11T18:41:21.989Z,21.60
2018-10-11T18:43:51.080Z,14.20
2018-10-11T18:46:21.229Z,19.40
2018-10-11T18:48:50.367Z,14.47
2018-10-11T18:51:19.508Z,18.47
2018-10-11T18:53:48.660Z,19.33
2018-10-11T18:56:17.752Z,13.90
2018-10-11T18:58:46.943Z,19.87
2018-10-11T19:01:16.065Z,15.90
2018-10-11T19:03:45.264Z,19.00
2018-10-11T19:06:14.501Z,15.40
2018-10-11T19:08:43.579Z,15.20
2018-10-11T19:11:12.687Z,23.93
2018-10-11T19:13:41.964Z,18.50
2018-10-11T19:16:11.073Z,16.90
2018-10-11T19:18:40.193Z,21.83
2018-10-11T19:21:09.289Z,16.03
2018-10-11T19:23:38.398Z,15.00
2018-10-11T19:26:07.622Z,15.30
2018-10-11T19:28:36.733Z,18.03
2018-10-11T19:31:05.906Z,15.50
2018-10-11T19:33:34.975Z,20.60
2018-10-11T19:36:04.095Z,22.07
2018-10-11T19:38:33.198Z,18.67
2018-10-11T19:41:02.304Z,17.50
2018-10-11T19:43:31.508Z,19.57
2018-10-11T19:46:00.774Z,17.93
2018-10-11T19:48:29.900Z,17.30
2018-10-11T19:50:59.109Z,20.20
2018-10-11T19:53:28.230Z,24.50
2018-10-11T19:55:57.403Z,21.50
2018-10-11T19:58:26.546Z,22.10
2018-10-11T20:00:55.697Z,20.87
2018-10-11T20:03:24.859Z,19.10
2018-10-11T20:05:53.950Z,17.87
2018-10-11T20:08:23.161Z,22.73
2018-10-11T20:10:52.242Z,18.63
2018-10-11T20:13:21.392Z,19.67
2018-10-11T20:15:50.536Z,17.97
2018-10-11T20:18:19.726Z,23.00
2018-10-11T20:20:48.864Z,17.90
2018-10-11T20:23:17.978Z,21.13
2018-10-11T20:25:47.161Z,19.93
2018-10-11T20:28:16.314Z,19.50
2018-10-11T20:30:45.415Z,19.37
2018-10-11T20:33:14.507Z,25.23
2018-10-11T20:35:43.640Z,17.50
2018-10-11T20:38:12.750Z,24.27
2018-10-11T20:40:41.858Z,20.10
2018-10-11T20:43:11.056Z,25.70
2018-10-11T20:45:40.158Z,16.60
2018-10-11T20:48:09.296Z,25.90
2018-10-11T20:50:38.421Z,21.17
2018-10-11T20:53:07.620Z,18.90
2018-10-11T20:55:36.752Z,20.30
2018-10-11T20:58:05.920Z,19.10
2018-10-11T21:00:41.807Z,24.60
2018-10-11T21:03:11.009Z,21.87
2018-10-11T21:05:40.206Z,27.33
2018-10-11T21:08:09.352Z,17.43
2018-10-11T21:10:38.506Z,19.37
2018-10-11T21:13:07.642Z,16.77
2018-10-11T21:15:36.745Z,26.97
2018-10-11T21:18:05.904Z,32.53
2018-10-11T21:20:35.139Z,28.93
2018-10-11T21:23:04.177Z,29.27
2018-10-11T21:25:39.973Z,16.97
2018-10-11T21:28:09.113Z,17.10
2018-10-11T21:30:38.280Z,21.40
2018-10-11T21:33:07.381Z,23.60
2018-10-11T21:35:36.496Z,22.00
2018-10-11T21:38:06.203Z,19.37
2018-10-11T21:40:35.333Z,17.30
2018-10-11T21:43:04.691Z,18.33
2018-10-11T21:45:33.811Z,23.47
2018-10-11T21:48:02.929Z,19.70
2018-10-11T21:50:32.051Z,21.77
2018-10-11T21:53:01.173Z,22.03
2018-10-11T21:55:30.297Z,24.80
2018-10-11T21:57:59.423Z,20.13
2018-10-11T22:00:33.829Z,19.30
2018-10-11T22:03:03.010Z,27.23
2018-10-11T22:05:32.195Z,19.97
2018-10-11T22:08:01.318Z,25.77
2018-10-11T22:10:30.423Z,22.40
2018-10-11T22:12:59.540Z,25.40
2018-10-11T22:15:28.664Z,27.97
2018-10-11T22:17:57.785Z,25.27
2018-10-11T22:20:26.885Z,22.37
2018-10-11T22:22:56.043Z,21.30
2018-10-11T22:25:25.140Z,24.40
2018-10-11T22:27:54.763Z,19.60
2018-10-11T22:30:23.880Z,21.87
2018-10-11T22:32:53.350Z,25.93
2018-10-11T22:35:22.474Z,25.70
2018-10-11T22:37:58.182Z,20.20
2018-10-11T22:40:27.722Z,22.50
2018-10-11T22:42:57.514Z,25.20
2018-10-11T22:45:27.242Z,20.40
2018-10-11T22:47:57.060Z,25.80
2018-10-11T22:50:27.388Z,26.40
2018-10-11T22:52:57.098Z,22.90
2018-10-11T22:55:27.113Z,24.07
2018-10-11T22:57:56.231Z,27.30
2018-10-11T23:00:25.386Z,24.00
2018-10-11T23:02:54.520Z,26.33
2018-10-11T23:05:23.784Z,28.57
2018-10-11T23:07:52.916Z,24.60
2018-10-11T23:10:22.393Z,22.40
2018-10-11T23:12:51.513Z,25.00
2018-10-11T23:15:20.665Z,25.50
2018-10-11T23:17:49.802Z,32.33
2018-10-11T23:20:18.968Z,27.43
2018-10-11T23:22:48.129Z,29.43
2018-10-11T23:25:17.272Z,29.07
2018-10-11T23:27:46.401Z,25.23
2018-10-11T23:30:15.591Z,24.50
2018-10-11T23:32:44.697Z,31.80
2018-10-11T23:35:13.858Z,28.53
2018-10-11T23:37:43.039Z,31.10
2018-10-11T23:40:12.654Z,23.90
2018-10-11T23:42:42.262Z,26.37
2018-10-11T23:45:12.602Z,30.17
2018-10-11T23:47:42.625Z,25.83
2018-10-11T23:50:11.783Z,31.57
2018-10-11T23:52:41.011Z,33.93
2018-10-11T23:55:10.236Z,24.77
2018-10-11T23:57:39.335Z,26.83
